createdAt,value
2019-02-23T00:02:23.947Z,16.43
2019-02-23T00:04:52.034Z,15.17
2019-02-23T00:07:20.123Z,14.97
2019-02-23T00:09:48.563Z,14.27
2019-02-23T00:12:16.968Z,14.07
2019-02-23T00:14:45.068Z,13.43
2019-02-23T00:17:13.148Z,13.87
2019-02-23T00:19:41.256Z,14.50
2019-02-23T00:22:09.344Z,14.13
2019-02-23T00:24:37.429Z,15.27
2019-02-23T00:27:05.862Z,15.90
2019-02-23T00:29:34.284Z,14.97
2019-02-23T00:32:02.380Z,15.80
2019-02-23T00:34:30.800Z,15.47
2019-02-23T00:36:58.892Z,13.90
2019-02-23T00:39:27.310Z,14.93
2019-02-23T00:41:55.741Z,14.17
2019-02-23T00:44:24.156Z,13.70
2019-02-23T00:46:52.256Z,15.57
2019-02-23T00:49:20.685Z,14.60
2019-02-23T00:51:48.776Z,15.43
2019-02-23T00:54:17.192Z,15.40
2019-02-23T00:56:45.630Z,16.03
2019-02-23T00:59:14.044Z,14.93
2019-02-23T01:01:42.464Z,14.80
2019-02-23T01:04:11.141Z,14.93
2019-02-23T01:06:39.563Z,13.77
2019-02-23T01:09:08.254Z,14.33
2019-02-23T01:11:36.685Z,13.97
2019-02-23T01:14:05.097Z,14.20
2019-02-23T01:16:33.523Z,14.60
2019-02-23T01:19:01.952Z,15.70
2019-02-23T01:21:30.378Z,15.13
2019-02-23T01:23:58.792Z,15.17
2019-02-23T01:26:27.220Z,16.10
2019-02-23T01:28:55.636Z,15.77
2019-02-23T01:31:24.058Z,15.73
2019-02-23T01:33:52.469Z,14.93
2019-02-23T01:36:20.898Z,14.43
2019-02-23T01:38:49.305Z,16.03
2019-02-23T01:41:17.727Z,15.63
2019-02-23T01:43:46.144Z,16.13
2019-02-23T01:46:14.566Z,15.37
2019-02-23T01:48:43.289Z,16.33
2019-02-23T01:51:11.711Z,16.10
2019-02-23T01:53:40.137Z,15.77
2019-02-23T01:56:08.617Z,16.13
2019-02-23T01:58:37.048Z,17.77
2019-02-23T02:01:06.128Z,16.97
2019-02-23T02:03:34.559Z,17.17
2019-02-23T02:06:02.978Z,16.80
2019-02-23T02:08:31.412Z,17.83
2019-02-23T02:11:00.133Z,16.80
2019-02-23T02:13:28.562Z,16.57
2019-02-23T02:15:56.977Z,15.93
2019-02-23T02:18:25.417Z,16.83
2019-02-23T02:20:53.828Z,15.80
2019-02-23T02:23:22.264Z,15.30
2019-02-23T02:25:50.703Z,15.47
2019-02-23T02:28:19.133Z,16.27
2019-02-23T02:30:47.549Z,15.60
2019-02-23T02:33:15.980Z,16.03
2019-02-23T02:35:44.405Z,16.80
2019-02-23T02:38:13.129Z,16.37
2019-02-23T02:40:41.600Z,16.03
2019-02-23T02:43:10.305Z,15.60
2019-02-23T02:45:38.724Z,17.12
2019-02-23T02:48:07.459Z,15.40
2019-02-23T02:50:35.899Z,15.23
2019-02-23T02:53:04.304Z,17.07
2019-02-23T02:55:33.008Z,17.23
2019-02-23T02:58:01.433Z,16.48
2019-02-23T03:00:29.850Z,16.65
2019-02-23T03:02:58.289Z,18.17
2019-02-23T03:05:26.779Z,17.42
2019-02-23T03:07:55.215Z,18.40
2019-02-23T03:10:23.640Z,19.02
2019-02-23T03:12:52.069Z,19.20
2019-02-23T03:15:20.497Z,19.02
2019-02-23T03:17:48.937Z,19.23
2019-02-23T03:20:17.358Z,22.05
2019-02-23T03:22:45.879Z,21.62
2019-02-23T03:25:14.289Z,22.37
2019-02-23T03:27:43.056Z,19.90
2019-02-23T03:30:12.196Z,19.65
2019-02-23T03:32:40.662Z,18.45
2019-02-23T03:35:09.149Z,18.30
2019-02-23T03:37:37.659Z,20.35
2019-02-23T03:40:07.966Z,19.07
2019-02-23T03:42:36.770Z,19.50
2019-02-23T03:45:05.750Z,20.05
2019-02-23T03:47:34.171Z,19.37
2019-02-23T03:50:02.774Z,20.60
2019-02-23T03:52:31.274Z,21.57
2019-02-23T03:54:59.710Z,23.35
2019-02-23T03:57:28.129Z,23.15
2019-02-23T03:59:56.631Z,23.95
2019-02-23T04:02:25.066Z,23.02
2019-02-23T04:04:53.498Z,23.73
2019-02-23T04:07:22.029Z,24.12
2019-02-23T04:09:50.461Z,25.35
2019-02-23T04:12:18.893Z,22.30
2019-02-23T04:14:47.320Z,20.88
2019-02-23T04:17:15.748Z,21.42
2019-02-23T04:19:44.179Z,20.65
2019-02-23T04:22:12.610Z,19.98
2019-02-23T04:24:41.042Z,21.23
2019-02-23T04:27:09.486Z,21.73
2019-02-23T04:29:37.926Z,22.58
2019-02-23T04:32:06.359Z,22.30
2019-02-23T04:34:34.796Z,22.33
2019-02-23T04:37:03.505Z,24.50
2019-02-23T04:39:31.941Z,25.30
2019-02-23T04:42:00.385Z,29.73
2019-02-23T04:44:28.914Z,25.45
2019-02-23T04:46:57.567Z,25.17
2019-02-23T04:49:26.215Z,24.92
2019-02-23T04:51:54.701Z,25.03
2019-02-23T04:54:23.127Z,25.60
2019-02-23T04:56:51.544Z,23.83
2019-02-23T04:59:20.014Z,25.00
2019-02-23T05:01:48.433Z,21.83
2019-02-23T05:04:16.882Z,22.93
2019-02-23T05:06:45.281Z,21.17
2019-02-23T05:09:13.714Z,20.57
2019-02-23T05:11:42.141Z,19.97
2019-02-23T05:14:10.591Z,20.97
2019-02-23T05:16:39.441Z,21.87
2019-02-23T05:19:07.913Z,22.73
2019-02-23T05:21:36.343Z,22.42
2019-02-23T05:24:04.845Z,20.90
2019-02-23T05:26:33.282Z,21.07
2019-02-23T05:29:01.715Z,20.37
2019-02-23T05:31:30.145Z,20.92
2019-02-23T05:33:58.575Z,20.47
2019-02-23T05:36:27.009Z,20.12
2019-02-23T05:38:55.455Z,21.55
2019-02-23T05:41:24.257Z,19.75
2019-02-23T05:43:52.727Z,20.73
2019-02-23T05:46:21.169Z,20.82
2019-02-23T05:48:49.602Z,20.87
2019-02-23T05:51:18.054Z,18.82
2019-02-23T05:53:46.477Z,19.87
2019-02-23T05:56:16.294Z,21.40
2019-02-23T05:58:44.938Z,22.53
2019-02-23T06:01:13.373Z,21.20
2019-02-23T06:03:41.799Z,20.25
2019-02-23T06:06:10.220Z,20.25
2019-02-23T06:08:38.810Z,21.02
2019-02-23T06:11:07.251Z,21.65
2019-02-23T06:13:35.669Z,22.32
2019-02-23T06:16:23.449Z,22.35
2019-02-23T06:18:51.873Z,21.42
2019-02-23T06:21:52.625Z,22.62
2019-02-23T06:24:09.805Z,22.35
2019-02-23T06:26:38.233Z,22.07
2019-02-23T06:29:06.690Z,21.00
2019-02-23T06:31:35.535Z,22.15
2019-02-23T06:34:15.451Z,25.17
2019-02-23T06:36:34.437Z,23.95
2019-02-23T06:39:02.862Z,24.17
2019-02-23T06:41:50.950Z,23.85
2019-02-23T06:44:19.452Z,23.65
2019-02-23T06:46:47.888Z,23.77
2019-02-23T06:49:16.317Z,25.85
2019-02-23T06:51:44.993Z,27.87
2019-02-23T06:54:13.424Z,29.05
2019-02-23T06:57:01.202Z,29.27
2019-02-23T06:59:29.638Z,28.87
2019-02-23T07:01:58.074Z,29.70
2019-02-23T07:04:26.493Z,30.08
2019-02-23T07:06:54.986Z,30.57
2019-02-23T07:09:23.418Z,41.95
2019-02-23T07:11:51.878Z,26.27
2019-02-23T07:14:20.292Z,26.17
2019-02-23T07:16:48.735Z,26.33
2019-02-23T07:19:17.154Z,31.25
2019-02-23T07:21:45.910Z,35.75
2019-02-23T07:24:14.345Z,32.58
2019-02-23T07:26:42.784Z,34.50
2019-02-23T07:29:11.210Z,33.58
2019-02-23T07:31:39.645Z,31.05
2019-02-23T07:34:08.077Z,33.30
2019-02-23T07:36:36.518Z,31.10
2019-02-23T07:39:06.897Z,28.40
2019-02-23T07:41:35.333Z,29.18
2019-02-23T07:44:03.776Z,29.65
2019-02-23T07:46:32.256Z,28.10
2019-02-23T07:49:00.689Z,28.23
2019-02-23T07:51:29.199Z,28.67
2019-02-23T07:53:57.629Z,26.82
2019-02-23T07:56:26.070Z,26.97
2019-02-23T07:58:54.485Z,27.62
2019-02-23T08:01:22.922Z,28.00
2019-02-23T08:03:51.350Z,26.02
2019-02-23T08:06:19.793Z,25.37
2019-02-23T08:08:48.209Z,25.62
2019-02-23T08:11:16.642Z,24.67
2019-02-23T08:13:45.060Z,24.50
2019-02-23T08:16:13.826Z,24.72
2019-02-23T08:18:42.249Z,24.72
2019-02-23T08:21:10.689Z,23.52
2019-02-23T08:23:39.375Z,24.30
2019-02-23T08:26:07.809Z,23.32
2019-02-23T08:28:36.236Z,22.17
2019-02-23T08:31:04.669Z,23.10
2019-02-23T08:33:33.107Z,21.42
2019-02-23T08:36:01.529Z,23.42
2019-02-23T08:38:29.973Z,23.07
2019-02-23T08:40:58.737Z,22.10
2019-02-23T08:43:27.166Z,23.00
2019-02-23T08:45:55.573Z,23.03
2019-02-23T08:48:24.021Z,20.47
2019-02-23T08:50:52.767Z,21.63
2019-02-23T08:53:21.192Z,20.87
2019-02-23T08:55:49.608Z,22.30
2019-02-23T08:58:18.028Z,20.93
2019-02-23T09:00:46.444Z,20.80
2019-02-23T09:03:14.886Z,20.77
2019-02-23T09:05:43.313Z,20.33
2019-02-23T09:08:11.782Z,19.83
2019-02-23T09:10:40.210Z,20.67
2019-02-23T09:13:08.633Z,19.80
2019-02-23T09:15:37.059Z,19.77
2019-02-23T09:18:05.476Z,19.77
2019-02-23T09:20:33.908Z,18.37
2019-02-23T09:23:02.335Z,19.77
2019-02-23T09:25:30.837Z,18.70
2019-02-23T09:27:59.270Z,19.17
2019-02-23T09:30:27.686Z,18.50
2019-02-23T09:32:56.173Z,17.67
2019-02-23T09:35:24.585Z,17.70
2019-02-23T09:37:53.012Z,17.33
2019-02-23T09:40:21.429Z,17.83
2019-02-23T09:42:49.862Z,16.23
2019-02-23T09:45:18.283Z,16.53
2019-02-23T09:47:46.710Z,15.80
2019-02-23T09:50:15.139Z,17.10
2019-02-23T09:52:43.574Z,15.20
2019-02-23T09:55:13.309Z,16.50
2019-02-23T09:57:41.740Z,15.47
2019-02-23T10:00:12.410Z,16.20
2019-02-23T10:02:40.833Z,14.23
2019-02-23T10:05:09.890Z,15.93
2019-02-23T10:07:38.324Z,15.60
2019-02-23T10:10:11.310Z,14.77
2019-02-23T10:12:40.020Z,15.00
2019-02-23T10:15:10.279Z,14.90
2019-02-23T10:17:38.702Z,14.60
2019-02-23T10:20:09.762Z,14.83
2019-02-23T10:22:39.685Z,14.13
2019-02-23T10:25:27.674Z,13.77
2019-02-23T10:27:59.099Z,13.37
2019-02-23T10:30:26.542Z,12.77
2019-02-23T10:32:54.964Z,14.07
2019-02-23T10:35:23.387Z,13.30
2019-02-23T10:37:51.813Z,13.00
2019-02-23T10:40:20.238Z,13.47
2019-02-23T10:42:48.661Z,12.77
2019-02-23T10:45:17.090Z,12.03
2019-02-23T10:47:45.525Z,12.13
2019-02-23T10:50:15.485Z,12.27
2019-02-23T10:52:43.908Z,12.17
2019-02-23T10:55:15.485Z,11.30
2019-02-23T10:57:43.914Z,12.13
2019-02-23T11:00:22.661Z,13.23
2019-02-23T11:02:51.093Z,12.50
2019-02-23T11:05:20.332Z,11.80
2019-02-23T11:07:48.760Z,10.20
2019-02-23T11:10:17.461Z,9.27
2019-02-23T11:12:45.922Z,9.13
2019-02-23T11:15:16.801Z,9.60
2019-02-23T11:17:45.226Z,8.60
2019-02-23T11:20:14.207Z,8.93
2019-02-23T11:22:42.697Z,8.53
2019-02-23T11:25:11.962Z,7.70
2019-02-23T11:27:40.538Z,7.40
2019-02-23T11:30:12.713Z,7.97
2019-02-23T11:32:41.134Z,7.93
2019-02-23T11:35:17.170Z,8.10
2019-02-23T11:37:45.318Z,8.00
2019-02-23T11:40:15.517Z,7.40
2019-02-23T11:42:43.928Z,7.60
2019-02-23T11:45:12.487Z,7.87
2019-02-23T11:47:40.904Z,6.83
2019-02-23T11:50:11.545Z,8.17
2019-02-23T11:52:40.337Z,7.60
2019-02-23T11:55:09.317Z,7.63
2019-02-23T11:57:37.729Z,7.10
2019-02-23T12:00:08.944Z,7.30
2019-02-23T12:02:37.376Z,7.83
2019-02-23T12:05:06.393Z,7.30
2019-02-23T12:07:34.836Z,6.93
2019-02-23T12:10:03.581Z,7.00
2019-02-23T12:12:32.343Z,7.47
2019-02-23T12:15:00.757Z,7.30
2019-02-23T12:17:29.165Z,7.33
2019-02-23T12:19:57.591Z,7.13
2019-02-23T12:22:26.002Z,6.60
2019-02-23T12:24:54.429Z,7.23
2019-02-23T12:27:22.845Z,7.27
2019-02-23T12:29:51.256Z,8.07
2019-02-23T12:32:19.666Z,6.97
2019-02-23T12:34:48.087Z,6.90
2019-02-23T12:37:16.502Z,7.83
2019-02-23T12:39:44.918Z,7.50
2019-02-23T12:42:13.330Z,6.40
2019-02-23T12:44:41.757Z,6.20
2019-02-23T12:47:10.166Z,6.47
2019-02-23T12:49:38.581Z,6.70
2019-02-23T12:52:06.995Z,6.53
2019-02-23T12:54:35.418Z,6.60
2019-02-23T12:57:03.825Z,6.63
2019-02-23T12:59:32.255Z,6.10
2019-02-23T13:02:00.662Z,5.97
2019-02-23T13:04:29.088Z,5.47
2019-02-23T13:06:57.497Z,5.50
2019-02-23T13:09:28.453Z,5.40
2019-02-23T13:12:05.507Z,6.00
2019-02-23T13:14:40.133Z,5.50
2019-02-23T13:17:44.761Z,6.37
2019-02-23T13:20:22.070Z,5.57
2019-02-23T13:22:59.066Z,7.40
2019-02-23T13:25:36.318Z,12.97
2019-02-23T13:28:35.530Z,6.33
2019-02-23T13:31:24.812Z,16.73
2019-02-23T13:34:02.398Z,5.90
2019-02-23T13:36:48.895Z,4.93
2019-02-23T13:39:26.167Z,5.73
2019-02-23T13:42:12.535Z,4.70
2019-02-23T13:45:02.160Z,5.53
2019-02-23T13:47:39.559Z,4.53
2019-02-23T13:50:35.030Z,4.60
2019-02-23T13:53:09.013Z,4.50
2019-02-23T13:56:15.466Z,4.90
2019-02-23T13:58:47.774Z,5.10
2019-02-23T14:01:22.162Z,4.60
2019-02-23T14:04:05.366Z,4.70
2019-02-23T14:07:11.390Z,4.70
2019-02-23T14:09:49.046Z,5.10
2019-02-23T14:12:37.134Z,4.53
2019-02-23T14:15:23.771Z,4.60
2019-02-23T14:17:55.529Z,4.70
2019-02-23T14:20:32.850Z,4.37
2019-02-23T14:23:23.565Z,4.67
2019-02-23T14:26:19.316Z,4.47
2019-02-23T14:28:53.240Z,5.10
2019-02-23T14:31:39.249Z,4.93
2019-02-23T14:34:22.437Z,4.50
2019-02-23T14:37:13.600Z,5.07
2019-02-23T14:40:08.082Z,4.63
2019-02-23T14:43:02.241Z,4.27
2019-02-23T14:46:05.523Z,5.33
2019-02-23T14:48:39.708Z,4.90
2019-02-23T14:51:34.666Z,4.87
2019-02-23T14:54:24.169Z,4.93
2019-02-23T14:57:11.927Z,5.23
2019-02-23T15:00:04.556Z,5.57
2019-02-23T15:03:03.182Z,4.87
2019-02-23T15:05:56.525Z,5.00
2019-02-23T15:08:33.512Z,4.63
2019-02-23T15:11:38.624Z,5.10
2019-02-23T15:14:32.389Z,5.00
2019-02-23T15:17:24.926Z,5.10
2019-02-23T15:20:05.344Z,4.97
2019-02-23T15:22:54.637Z,5.30
2019-02-23T15:25:37.533Z,5.00
2019-02-23T15:28:37.515Z,4.67
2019-02-23T15:31:26.566Z,5.07
2019-02-23T15:34:07.073Z,5.10
2019-02-23T15:36:41.453Z,4.73
2019-02-23T15:39:18.780Z,4.50
2019-02-23T15:42:14.341Z,4.70
2019-02-23T15:45:08.357Z,5.10
2019-02-23T15:48:02.461Z,4.47
2019-02-23T15:50:30.939Z,3.77
2019-02-23T15:52:59.402Z,4.13
2019-02-23T15:55:29.864Z,3.90
2019-02-23T15:57:58.003Z,4.43
2019-02-23T16:00:26.442Z,4.20
2019-02-23T16:02:54.910Z,4.23
2019-02-23T16:05:23.317Z,4.33
2019-02-23T16:07:51.737Z,4.23
2019-02-23T16:10:20.467Z,3.87
2019-02-23T16:12:48.886Z,4.00
2019-02-23T16:15:17.301Z,4.47
2019-02-23T16:17:45.714Z,4.40
2019-02-23T16:20:14.126Z,3.30
2019-02-23T16:22:42.541Z,3.57
2019-02-23T16:25:10.963Z,5.65
2019-02-23T16:27:39.631Z,3.27
2019-02-23T16:30:10.375Z,4.03
2019-02-23T16:32:38.789Z,4.83
2019-02-23T16:35:08.457Z,4.60
2019-02-23T16:37:36.893Z,6.67
2019-02-23T16:40:06.885Z,3.80
2019-02-23T16:42:35.311Z,4.13
2019-02-23T16:45:05.157Z,4.27
2019-02-23T16:47:53.189Z,3.47
2019-02-23T16:50:21.593Z,3.67
2019-02-23T16:52:50.020Z,4.00
2019-02-23T16:55:18.429Z,3.13
2019-02-23T16:57:46.849Z,3.40
2019-02-23T17:00:15.257Z,6.57
2019-02-23T17:02:43.685Z,9.63
2019-02-23T17:05:12.102Z,8.30
2019-02-23T17:07:41.503Z,7.53
2019-02-23T17:10:09.910Z,10.53
2019-02-23T17:12:39.097Z,6.13
2019-02-23T17:15:10.485Z,6.50
2019-02-23T17:17:37.978Z,7.40
2019-02-23T17:20:06.695Z,9.00
2019-02-23T17:22:35.122Z,8.90
2019-02-23T17:25:04.109Z,9.60
2019-02-23T17:27:36.151Z,7.50
2019-02-23T17:30:02.670Z,4.60
2019-02-23T17:32:31.096Z,4.27
2019-02-23T17:34:59.501Z,3.83
2019-02-23T17:37:27.930Z,3.67
2019-02-23T17:39:56.341Z,2.90
2019-02-23T17:42:28.620Z,3.07
2019-02-23T17:44:54.912Z,2.90
2019-02-23T17:47:23.595Z,3.60
2019-02-23T17:49:52.305Z,11.27
2019-02-23T17:52:20.718Z,7.03
2019-02-23T17:54:49.498Z,8.77
2019-02-23T17:57:17.938Z,4.00
2019-02-23T17:59:46.353Z,4.47
2019-02-23T18:02:14.776Z,3.50
2019-02-23T18:04:43.193Z,3.17
2019-02-23T18:07:11.607Z,3.17
2019-02-23T18:09:40.048Z,3.57
2019-02-23T18:12:08.818Z,3.13
2019-02-23T18:14:37.234Z,3.30
2019-02-23T18:17:05.653Z,2.90
2019-02-23T18:19:34.077Z,3.43
2019-02-23T18:22:02.494Z,3.57
2019-02-23T18:24:30.921Z,3.83
2019-02-23T18:26:59.326Z,4.40
2019-02-23T18:29:27.740Z,5.00
2019-02-23T18:31:56.166Z,4.97
2019-02-23T18:34:24.581Z,6.10
2019-02-23T18:36:53.014Z,5.87
2019-02-23T18:39:21.997Z,4.23
2019-02-23T18:41:50.405Z,3.87
2019-02-23T18:44:18.830Z,3.67
2019-02-23T18:46:47.266Z,3.50
2019-02-23T18:49:15.681Z,3.63
2019-02-23T18:51:44.113Z,3.50
2019-02-23T18:54:12.794Z,3.30
2019-02-23T18:56:41.206Z,3.70
2019-02-23T18:59:09.630Z,5.87
2019-02-23T19:01:38.181Z,5.87
2019-02-23T19:04:06.778Z,4.70
2019-02-23T19:06:35.190Z,3.10
2019-02-23T19:09:04.295Z,4.03
2019-02-23T19:11:32.709Z,4.60
2019-02-23T19:14:01.402Z,6.60
2019-02-23T19:16:29.812Z,3.90
2019-02-23T19:18:58.245Z,4.40
2019-02-23T19:21:26.694Z,4.00
2019-02-23T19:23:55.164Z,3.53
2019-02-23T19:26:23.606Z,3.40
2019-02-23T19:28:52.016Z,3.87
2019-02-23T19:31:20.434Z,4.13
2019-02-23T19:33:48.849Z,3.80
2019-02-23T19:36:17.624Z,3.50
2019-02-23T19:38:46.165Z,4.07
2019-02-23T19:41:15.285Z,4.37
2019-02-23T19:43:43.720Z,3.67
2019-02-23T19:46:12.145Z,3.60
2019-02-23T19:48:41.151Z,3.53
2019-02-23T19:51:09.929Z,3.47
2019-02-23T19:53:39.184Z,5.63
2019-02-23T19:56:07.786Z,4.20
2019-02-23T19:58:37.807Z,4.13
2019-02-23T20:01:06.385Z,4.63
2019-02-23T20:03:34.811Z,5.43
2019-02-23T20:06:03.230Z,4.93
2019-02-23T20:08:31.657Z,5.13
2019-02-23T20:11:00.097Z,4.30
2019-02-23T20:13:28.560Z,4.70
2019-02-23T20:15:56.988Z,3.90
2019-02-23T20:18:25.404Z,4.50
2019-02-23T20:20:53.872Z,5.67
2019-02-23T20:23:22.264Z,3.97
2019-02-23T20:25:50.702Z,5.00
2019-02-23T20:28:19.117Z,4.40
2019-02-23T20:30:47.541Z,3.90
2019-02-23T20:33:16.249Z,4.27
2019-02-23T20:35:44.665Z,3.30
2019-02-23T20:38:13.084Z,4.50
2019-02-23T20:40:41.508Z,4.60
2019-02-23T20:43:09.904Z,4.60
2019-02-23T20:45:38.330Z,4.10
2019-02-23T20:48:06.828Z,4.03
2019-02-23T20:50:35.245Z,3.87
2019-02-23T20:53:03.661Z,4.17
2019-02-23T20:55:32.090Z,4.20
2019-02-23T20:58:00.568Z,3.83
2019-02-23T21:00:28.994Z,3.97
2019-02-23T21:02:57.396Z,4.87
2019-02-23T21:05:25.847Z,4.70
2019-02-23T21:07:54.356Z,4.53
2019-02-23T21:10:22.869Z,4.60
2019-02-23T21:12:51.367Z,4.97
2019-02-23T21:15:19.780Z,4.37
2019-02-23T21:17:48.207Z,4.57
2019-02-23T21:20:17.534Z,5.03
2019-02-23T21:22:45.945Z,5.70
2019-02-23T21:25:14.366Z,6.13
2019-02-23T21:27:42.782Z,5.83
2019-02-23T21:30:11.545Z,5.53
2019-02-23T21:32:39.952Z,4.80
2019-02-23T21:35:08.755Z,4.23
2019-02-23T21:37:37.224Z,4.27
2019-02-23T21:40:08.789Z,4.40
2019-02-23T21:42:37.209Z,4.53
2019-02-23T21:45:07.972Z,5.10
2019-02-23T21:47:36.381Z,4.50
2019-02-23T21:50:06.750Z,4.13
2019-02-23T21:52:35.161Z,4.20
2019-02-23T21:55:03.598Z,4.67
2019-02-23T21:57:32.000Z,4.60
2019-02-23T22:00:00.689Z,4.40
2019-02-23T22:02:29.180Z,4.50
2019-02-23T22:04:57.682Z,4.13
2019-02-23T22:07:26.168Z,3.87
2019-02-23T22:09:54.579Z,3.63
2019-02-23T22:12:23.029Z,3.80
2019-02-23T22:14:51.710Z,4.20
2019-02-23T22:17:20.480Z,4.20
2019-02-23T22:19:48.898Z,4.07
2019-02-23T22:22:17.327Z,3.77
2019-02-23T22:24:45.733Z,4.00
2019-02-23T22:27:14.157Z,4.20
2019-02-23T22:29:42.615Z,4.00
2019-02-23T22:32:11.111Z,4.33
2019-02-23T22:34:39.821Z,3.73
2019-02-23T22:37:08.261Z,4.30
2019-02-23T22:39:36.676Z,3.77
2019-02-23T22:42:05.109Z,3.90
2019-02-23T22:44:33.665Z,4.20
2019-02-23T22:47:02.578Z,4.23
2019-02-23T22:49:31.006Z,5.60
2019-02-23T22:51:59.450Z,6.60
2019-02-23T22:54:28.177Z,5.70
2019-02-23T22:56:56.961Z,6.13
2019-02-23T22:59:25.389Z,8.67
2019-02-23T23:01:53.873Z,9.23
2019-02-23T23:04:22.293Z,6.83
2019-02-23T23:06:50.789Z,7.00
2019-02-23T23:09:38.645Z,6.90
2019-02-23T23:12:07.146Z,6.53
2019-02-23T23:14:35.578Z,7.28
2019-02-23T23:17:04.013Z,7.08
2019-02-23T23:19:32.446Z,6.33
2019-02-23T23:22:00.873Z,6.35
2019-02-23T23:24:48.680Z,5.72
2019-02-23T23:27:17.114Z,6.10
2019-02-23T23:29:45.538Z,6.45
2019-02-23T23:32:14.301Z,5.78
2019-02-23T23:34:43.548Z,6.10
2019-02-23T23:37:11.982Z,6.03
2019-02-23T23:39:40.405Z,7.08
2019-02-23T23:42:08.852Z,7.00
2019-02-23T23:44:37.333Z,5.87
2019-02-23T23:47:05.773Z,6.20
2019-02-23T23:49:34.201Z,6.50
2019-02-23T23:52:02.641Z,5.83
2019-02-23T23:54:31.065Z,5.73
2019-02-23T23:56:59.479Z,6.27
2019-02-23T23:59:27.924Z,7.10
